createdAt,value
2019-02-04T01:35:42.684Z,36.23
2019-02-04T01:38:11.103Z,36.50
2019-02-04T01:40:39.519Z,32.73
2019-02-04T01:43:10.952Z,34.40
2019-02-04T01:45:39.375Z,38.43
2019-02-04T01:48:07.797Z,33.73
2019-02-04T01:50:36.211Z,35.67
2019-02-04T01:53:04.633Z,33.93
2019-02-04T01:55:33.110Z,38.30
2019-02-04T01:58:01.522Z,32.57
2019-02-04T02:00:32.285Z,32.13
2019-02-04T02:03:02.341Z,33.00
2019-02-04T02:05:30.819Z,34.63
2019-02-04T02:07:59.241Z,34.63
2019-02-04T02:10:28.495Z,31.73
2019-02-04T02:12:57.152Z,32.73
2019-02-04T02:15:25.579Z,33.10
2019-02-04T02:17:54.060Z,31.73
2019-02-04T02:20:24.909Z,33.30
2019-02-04T02:22:53.332Z,35.70
2019-02-04T02:25:21.812Z,33.57
2019-02-04T02:27:50.299Z,34.67
2019-02-04T02:30:22.069Z,34.27
2019-02-04T02:32:50.478Z,32.27
2019-02-04T02:35:18.935Z,30.50
2019-02-04T02:37:47.395Z,30.97
2019-02-04T02:40:24.738Z,31.20
2019-02-04T02:42:53.156Z,32.60
2019-02-04T02:45:21.657Z,28.00
2019-02-04T02:47:50.060Z,29.27
2019-02-04T02:50:18.557Z,30.47
2019-02-04T02:52:46.971Z,31.03
2019-02-04T02:55:17.248Z,28.87
2019-02-04T02:57:45.797Z,29.73
2019-02-04T03:00:22.584Z,33.20
2019-02-04T03:02:51.065Z,32.73
2019-02-04T03:05:20.129Z,30.60
2019-02-04T03:07:48.559Z,27.83
2019-02-04T03:10:19.776Z,27.67
2019-02-04T03:12:48.580Z,28.60
2019-02-04T03:15:17.007Z,29.70
2019-02-04T03:17:52.011Z,26.57
2019-02-04T03:20:15.788Z,27.33
2019-02-04T03:22:44.215Z,28.80
2019-02-04T03:25:14.444Z,27.23
2019-02-04T03:27:43.272Z,27.33
2019-02-04T03:30:17.663Z,28.47
2019-02-04T03:32:46.081Z,25.87
2019-02-04T03:35:14.631Z,26.77
2019-02-04T03:37:43.047Z,29.53
2019-02-04T03:40:14.767Z,28.70
2019-02-04T03:42:43.267Z,28.30
2019-02-04T03:45:12.917Z,24.80
2019-02-04T03:47:41.331Z,25.47
2019-02-04T03:50:11.904Z,31.00
2019-02-04T03:52:41.054Z,27.10
2019-02-04T03:55:12.267Z,26.90
2019-02-04T03:57:40.679Z,26.00
2019-02-04T04:00:21.162Z,27.93
2019-02-04T04:02:49.761Z,27.40
2019-02-04T04:05:18.171Z,25.77
2019-02-04T04:07:46.664Z,26.97
2019-02-04T04:10:15.432Z,27.90
2019-02-04T04:12:43.908Z,26.33
2019-02-04T04:15:14.538Z,29.53
2019-02-04T04:17:42.969Z,28.77
2019-02-04T04:20:14.095Z,27.13
2019-02-04T04:22:42.712Z,27.60
2019-02-04T04:25:16.177Z,28.67
2019-02-04T04:27:44.732Z,28.07
2019-02-04T04:30:18.850Z,23.93
2019-02-04T04:32:47.259Z,27.47
2019-02-04T04:35:16.487Z,30.27
2019-02-04T04:37:45.031Z,28.07
2019-02-04T04:40:15.154Z,29.70
2019-02-04T04:42:43.795Z,25.27
2019-02-04T04:45:15.295Z,28.83
2019-02-04T04:47:43.816Z,27.07
2019-02-04T04:50:12.469Z,27.00
2019-02-04T04:52:40.883Z,26.73
2019-02-04T04:55:21.008Z,27.53
2019-02-04T04:57:49.428Z,27.40
2019-02-04T05:00:20.275Z,27.70
2019-02-04T05:02:48.879Z,26.33
2019-02-04T05:05:17.367Z,27.63
2019-02-04T05:07:45.796Z,29.13
2019-02-04T05:10:16.549Z,32.13
2019-02-04T05:12:45.048Z,27.70
2019-02-04T05:15:22.483Z,28.63
2019-02-04T05:17:52.726Z,30.27
2019-02-04T05:20:21.538Z,29.80
2019-02-04T05:22:50.029Z,32.70
2019-02-04T05:25:18.616Z,31.63
2019-02-04T05:27:47.028Z,33.47
2019-02-04T05:30:17.382Z,35.80
2019-02-04T05:32:45.788Z,30.13
2019-02-04T05:35:14.323Z,28.73
2019-02-04T05:37:42.813Z,32.67
2019-02-04T05:40:18.296Z,32.70
2019-02-04T05:42:47.224Z,33.93
2019-02-04T05:45:18.141Z,29.27
2019-02-04T05:47:46.627Z,34.67
2019-02-04T05:50:17.307Z,33.47
2019-02-04T05:52:46.209Z,33.87
2019-02-04T05:55:15.771Z,31.83
2019-02-04T05:57:44.254Z,32.40
2019-02-04T06:00:16.448Z,31.07
2019-02-04T06:02:44.857Z,30.00
2019-02-04T06:05:13.717Z,29.70
2019-02-04T06:07:42.120Z,31.67
2019-02-04T06:10:11.479Z,32.60
2019-02-04T06:12:39.880Z,33.77
2019-02-04T06:15:11.456Z,33.93
2019-02-04T06:17:39.860Z,33.70
2019-02-04T06:20:11.361Z,34.73
2019-02-04T06:22:39.832Z,30.67
2019-02-04T06:25:08.868Z,33.73
2019-02-04T06:27:37.364Z,32.60
2019-02-04T06:30:09.312Z,35.50
2019-02-04T06:32:37.715Z,35.27
2019-02-04T06:35:06.578Z,32.57
2019-02-04T06:37:34.983Z,34.67
2019-02-04T06:40:05.111Z,35.97
2019-02-04T06:42:33.516Z,35.80
2019-02-04T06:45:01.929Z,28.27
2019-02-04T06:47:30.335Z,33.83
2019-02-04T06:49:58.756Z,31.50
2019-02-04T06:52:27.160Z,34.13
2019-02-04T06:54:55.949Z,31.03
2019-02-04T06:57:24.364Z,29.63
2019-02-04T06:59:52.839Z,30.13
2019-02-04T07:02:21.251Z,30.70
2019-02-04T07:04:49.664Z,36.50
2019-02-04T07:07:18.071Z,33.10
2019-02-04T07:09:46.477Z,31.93
2019-02-04T07:12:15.181Z,32.67
2019-02-04T07:14:43.653Z,33.30
2019-02-04T07:17:12.142Z,31.00
2019-02-04T07:19:40.543Z,33.30
2019-02-04T07:22:08.955Z,32.80
2019-02-04T07:24:42.842Z,32.83
2019-02-04T07:27:07.508Z,30.67
2019-02-04T07:29:35.911Z,29.73
2019-02-04T07:32:04.401Z,36.20
2019-02-04T07:34:32.807Z,31.30
2019-02-04T07:37:01.228Z,34.70
2019-02-04T07:39:29.638Z,30.90
2019-02-04T07:41:58.056Z,29.77
2019-02-04T07:44:26.532Z,28.27
2019-02-04T07:46:54.941Z,34.10
2019-02-04T07:49:23.347Z,31.63
2019-02-04T07:51:51.764Z,27.77
2019-02-04T07:54:20.168Z,29.93
2019-02-04T07:56:48.580Z,32.30
2019-02-04T07:59:17.371Z,27.73
2019-02-04T08:01:45.852Z,34.17
2019-02-04T08:04:14.272Z,32.90
2019-02-04T08:06:42.687Z,33.93
2019-02-04T08:09:11.100Z,32.33
2019-02-04T08:11:39.503Z,35.20
2019-02-04T08:14:08.343Z,32.70
2019-02-04T08:16:37.780Z,34.43
2019-02-04T08:19:06.269Z,30.27
2019-02-04T08:21:34.672Z,35.47
2019-02-04T08:24:03.098Z,36.77
2019-02-04T08:26:31.504Z,26.23
2019-02-04T08:28:59.919Z,28.33
2019-02-04T08:31:28.558Z,28.87
2019-02-04T08:33:56.977Z,31.53
2019-02-04T08:36:25.378Z,32.87
2019-02-04T08:38:53.800Z,30.93
2019-02-04T08:41:22.216Z,30.83
2019-02-04T08:43:52.340Z,29.47
2019-02-04T08:46:22.230Z,33.27
2019-02-04T08:48:51.659Z,25.87
2019-02-04T08:51:20.155Z,27.47
2019-02-04T08:53:49.134Z,24.63
2019-02-04T08:56:17.557Z,28.50
2019-02-04T08:58:46.027Z,25.27
2019-02-04T09:01:14.439Z,27.37
2019-02-04T09:03:42.921Z,29.43
2019-02-04T09:06:11.975Z,26.63
2019-02-04T09:08:40.451Z,27.70
2019-02-04T09:11:08.946Z,30.30
2019-02-04T09:13:37.360Z,25.60
2019-02-04T09:16:08.935Z,24.63
2019-02-04T09:18:44.413Z,24.40
2019-02-04T09:21:07.756Z,25.47
2019-02-04T09:23:36.244Z,21.07
2019-02-04T09:26:04.791Z,24.47
2019-02-04T09:28:33.326Z,25.47
2019-02-04T09:31:01.861Z,22.90
2019-02-04T09:33:30.600Z,26.37
2019-02-04T09:35:59.007Z,24.17
2019-02-04T09:38:28.857Z,21.17
2019-02-04T09:40:57.289Z,24.37
2019-02-04T09:43:25.704Z,18.83
2019-02-04T09:45:54.108Z,19.13
2019-02-04T09:48:24.077Z,21.77
2019-02-04T09:50:53.131Z,23.67
2019-02-04T09:53:21.549Z,26.47
2019-02-04T09:55:50.030Z,32.10
2019-02-04T09:58:18.527Z,20.40
2019-02-04T10:00:47.225Z,20.83
2019-02-04T10:03:15.719Z,22.40
2019-02-04T10:05:44.471Z,20.33
2019-02-04T10:08:13.205Z,17.67
2019-02-04T10:10:42.455Z,17.33
2019-02-04T10:13:10.944Z,16.70
2019-02-04T10:15:41.956Z,16.57
2019-02-04T10:18:11.136Z,14.80
2019-02-04T10:20:40.598Z,16.93
2019-02-04T10:23:09.679Z,14.93
2019-02-04T10:25:40.222Z,15.27
2019-02-04T10:28:09.361Z,14.10
2019-02-04T10:30:37.967Z,15.00
2019-02-04T10:33:06.512Z,13.83
2019-02-04T10:35:35.083Z,16.43
2019-02-04T10:38:03.643Z,14.60
2019-02-04T10:40:32.244Z,16.33
2019-02-04T10:43:01.054Z,16.00
2019-02-04T10:45:29.617Z,15.73
2019-02-04T10:47:58.174Z,15.60
2019-02-04T10:50:30.049Z,12.57
2019-02-04T10:52:58.661Z,13.33
2019-02-04T10:55:27.147Z,13.23
2019-02-04T10:57:55.837Z,14.17
2019-02-04T11:00:27.347Z,21.70
2019-02-04T11:02:56.277Z,19.50
2019-02-04T11:05:27.359Z,18.27
2019-02-04T11:07:55.845Z,19.23
2019-02-04T11:10:26.651Z,19.30
2019-02-04T11:12:55.153Z,18.10
2019-02-04T11:15:25.572Z,19.50
2019-02-04T11:17:53.768Z,16.30
2019-02-04T11:20:24.858Z,18.70
2019-02-04T11:22:53.508Z,17.53
2019-02-04T11:25:22.716Z,21.03
2019-02-04T11:27:51.351Z,17.93
2019-02-04T11:30:25.997Z,18.87
2019-02-04T11:32:54.843Z,17.57
2019-02-04T11:35:23.426Z,16.80
2019-02-04T11:37:52.058Z,16.27
2019-02-04T11:40:32.228Z,17.03
2019-02-04T11:43:00.743Z,18.93
2019-02-04T11:45:29.744Z,16.70
2019-02-04T11:47:58.312Z,19.20
2019-02-04T11:50:29.042Z,17.83
2019-02-04T11:52:57.516Z,19.07
2019-02-04T11:55:26.003Z,20.93
2019-02-04T11:57:54.412Z,17.53
2019-02-04T12:00:31.124Z,19.20
2019-02-04T12:03:01.474Z,19.77
2019-02-04T12:05:30.127Z,22.10
2019-02-04T12:07:58.669Z,20.00
2019-02-04T12:10:29.923Z,19.33
2019-02-04T12:12:58.671Z,21.27
2019-02-04T12:15:27.163Z,18.73
2019-02-04T12:17:55.575Z,18.27
2019-02-04T12:20:24.131Z,19.00
2019-02-04T12:22:52.566Z,19.23
2019-02-04T12:25:23.814Z,20.87
2019-02-04T12:27:53.134Z,18.20
2019-02-04T12:30:31.067Z,22.23
2019-02-04T12:33:00.349Z,17.60
2019-02-04T12:35:28.838Z,19.37
2019-02-04T12:37:57.500Z,18.90
2019-02-04T12:40:26.053Z,19.47
2019-02-04T12:42:54.751Z,18.90
2019-02-04T12:45:31.496Z,18.63
2019-02-04T12:48:00.829Z,18.63
2019-02-04T12:50:29.704Z,18.20
2019-02-04T12:52:58.116Z,17.47
2019-02-04T12:55:29.514Z,14.97
2019-02-04T12:57:57.922Z,16.10
2019-02-04T13:00:29.105Z,15.93
2019-02-04T13:02:57.882Z,14.97
2019-02-04T13:05:32.380Z,15.63
2019-02-04T13:08:00.938Z,14.00
2019-02-04T13:10:32.504Z,17.60
2019-02-04T13:13:03.241Z,16.33
2019-02-04T13:15:31.639Z,17.07
2019-02-04T13:18:00.067Z,16.33
2019-02-04T13:20:28.487Z,17.10
2019-02-04T13:22:57.288Z,18.20
2019-02-04T13:25:28.104Z,17.20
2019-02-04T13:27:56.608Z,19.80
2019-02-04T13:30:29.455Z,15.40
2019-02-04T13:32:58.132Z,15.93
2019-02-04T13:35:26.684Z,18.33
2019-02-04T13:37:55.540Z,15.20
2019-02-04T13:40:28.808Z,18.50
2019-02-04T13:42:57.357Z,15.70
2019-02-04T13:45:25.905Z,16.67
2019-02-04T13:47:55.063Z,16.23
2019-02-04T13:50:24.312Z,17.50
2019-02-04T13:52:54.666Z,15.47
2019-02-04T13:55:28.739Z,16.53
2019-02-04T13:57:57.141Z,17.53
2019-02-04T14:00:27.127Z,19.07
2019-02-04T14:02:59.347Z,17.20
2019-02-04T14:05:27.508Z,16.93
2019-02-04T14:07:55.916Z,17.43
2019-02-04T14:10:26.479Z,19.80
2019-02-04T14:12:54.959Z,19.03
2019-02-04T14:15:23.706Z,18.03
2019-02-04T14:17:52.179Z,18.90
2019-02-04T14:20:22.939Z,19.07
2019-02-04T14:22:53.361Z,19.97
2019-02-04T14:25:22.001Z,21.37
2019-02-04T14:27:50.747Z,22.60
2019-02-04T14:30:27.766Z,21.80
2019-02-04T14:32:56.303Z,21.03
2019-02-04T14:35:24.719Z,21.73
2019-02-04T14:37:53.456Z,20.60
2019-02-04T14:40:22.111Z,20.23
2019-02-04T14:42:59.581Z,21.93
2019-02-04T14:45:29.920Z,23.43
2019-02-04T14:48:06.087Z,20.83
2019-02-04T14:50:55.254Z,22.30
2019-02-04T14:53:48.289Z,19.77
2019-02-04T14:56:28.316Z,19.13
2019-02-04T14:58:59.780Z,22.33
2019-02-04T15:01:45.957Z,18.87
2019-02-04T15:04:17.511Z,20.10
2019-02-04T15:07:10.971Z,17.93
2019-02-04T15:09:58.724Z,15.00
2019-02-04T15:13:02.938Z,16.03
2019-02-04T15:16:03.628Z,14.83
2019-02-04T15:18:55.963Z,15.83
2019-02-04T15:21:30.540Z,18.33
2019-02-04T15:24:14.047Z,16.27
2019-02-04T15:27:00.373Z,15.93
2019-02-04T15:29:46.246Z,18.57
2019-02-04T15:32:29.303Z,16.67
2019-02-04T15:35:22.649Z,17.23
2019-02-04T15:38:00.152Z,18.17
2019-02-04T15:40:34.299Z,18.93
2019-02-04T15:43:14.674Z,18.70
2019-02-04T15:45:54.952Z,18.43
2019-02-04T15:48:26.607Z,18.73
2019-02-04T15:51:01.049Z,19.70
2019-02-04T15:53:30.745Z,19.13
2019-02-04T15:56:00.397Z,21.20
2019-02-04T15:58:29.099Z,19.83
2019-02-04T16:00:57.521Z,20.60
2019-02-04T16:03:25.942Z,20.93
2019-02-04T16:05:54.359Z,26.50
2019-02-04T16:08:23.633Z,23.20
2019-02-04T16:10:52.042Z,28.33
2019-02-04T16:13:20.453Z,22.23
2019-02-04T16:15:48.877Z,21.50
2019-02-04T16:18:17.289Z,22.60
2019-02-04T16:20:45.713Z,23.07
2019-02-04T16:23:14.292Z,22.50
2019-02-04T16:25:42.712Z,22.97
2019-02-04T16:28:11.123Z,25.50
2019-02-04T16:30:39.787Z,31.00
2019-02-04T16:33:08.195Z,28.00
2019-02-04T16:35:36.624Z,27.03
2019-02-04T16:38:05.660Z,29.67
2019-02-04T16:40:34.084Z,26.73
2019-02-04T16:43:02.499Z,26.97
2019-02-04T16:45:31.302Z,26.70
2019-02-04T16:47:59.722Z,26.83
2019-02-04T16:50:28.779Z,27.40
2019-02-04T16:53:09.510Z,24.73
2019-02-04T16:55:27.470Z,25.97
2019-02-04T16:57:56.899Z,23.67
2019-02-04T17:00:27.929Z,26.50
2019-02-04T17:02:56.341Z,28.60
2019-02-04T17:05:25.791Z,30.47
2019-02-04T17:07:54.447Z,25.67
2019-02-04T17:10:25.405Z,26.53
2019-02-04T17:12:53.959Z,25.33
2019-02-04T17:15:25.897Z,24.50
2019-02-04T17:17:54.376Z,26.23
2019-02-04T17:20:25.525Z,26.20
2019-02-04T17:22:54.015Z,32.50
2019-02-04T17:25:22.438Z,33.93
2019-02-04T17:27:50.927Z,28.70
2019-02-04T17:30:22.213Z,28.90
2019-02-04T17:32:50.628Z,29.20
2019-02-04T17:35:21.587Z,28.60
2019-02-04T17:37:50.011Z,31.00
2019-02-04T17:40:20.757Z,33.17
2019-02-04T17:42:50.012Z,33.07
2019-02-04T17:45:18.877Z,37.50
2019-02-04T17:47:48.751Z,55.37
2019-02-04T17:50:19.671Z,43.27
2019-02-04T17:52:48.528Z,36.80
2019-02-04T17:55:19.440Z,30.70
2019-02-04T17:57:47.865Z,29.40
2019-02-04T18:00:25.896Z,29.67
2019-02-04T18:02:54.315Z,31.30
2019-02-04T18:05:22.728Z,32.47
2019-02-04T18:07:51.169Z,31.70
2019-02-04T18:10:20.116Z,34.00
2019-02-04T18:12:48.981Z,45.47
2019-02-04T18:15:19.639Z,41.73
2019-02-04T18:17:48.123Z,32.47
2019-02-04T18:20:16.778Z,35.00
2019-02-04T18:22:45.196Z,33.83
2019-02-04T18:25:15.956Z,34.30
2019-02-04T18:27:44.368Z,39.07
2019-02-04T18:30:23.968Z,37.60
2019-02-04T18:32:52.756Z,35.60
2019-02-04T18:35:21.691Z,30.77
2019-02-04T18:37:50.184Z,33.97
2019-02-04T18:40:23.134Z,33.00
2019-02-04T18:42:52.053Z,35.53
2019-02-04T18:45:28.357Z,35.97
2019-02-04T18:47:56.916Z,34.03
2019-02-04T18:50:25.944Z,36.70
2019-02-04T18:52:54.496Z,34.57
2019-02-04T18:55:30.675Z,35.10
2019-02-04T18:57:59.162Z,30.83
2019-02-04T19:00:30.180Z,33.83
2019-02-04T19:02:59.839Z,30.73
2019-02-04T19:05:28.243Z,29.27
2019-02-04T19:07:56.732Z,38.67
2019-02-04T19:10:25.419Z,35.87
2019-02-04T19:12:53.909Z,35.63
2019-02-04T19:15:31.342Z,32.20
2019-02-04T19:18:02.922Z,26.83
2019-02-04T19:20:31.326Z,27.43
2019-02-04T19:22:59.757Z,29.80
2019-02-04T19:25:28.169Z,25.60
2019-02-04T19:27:56.651Z,22.73
2019-02-04T19:30:30.940Z,26.57
2019-02-04T19:32:59.439Z,37.80
2019-02-04T19:35:27.850Z,26.60
2019-02-04T19:37:56.263Z,25.90
2019-02-04T19:40:24.674Z,22.33
2019-02-04T19:42:53.170Z,20.67
2019-02-04T19:45:25.688Z,18.00
2019-02-04T19:47:54.448Z,26.10
2019-02-04T19:50:28.476Z,22.47
2019-02-04T19:52:56.963Z,22.07
2019-02-04T19:55:25.447Z,23.20
2019-02-04T19:57:53.933Z,22.27
2019-02-04T20:00:23.383Z,24.87
2019-02-04T20:02:52.848Z,52.30
2019-02-04T20:05:25.940Z,28.00
2019-02-04T20:07:54.704Z,30.20
2019-02-04T20:10:25.820Z,32.40
2019-02-04T20:12:55.206Z,34.87
2019-02-04T20:15:26.800Z,33.93
2019-02-04T20:17:55.354Z,31.03
2019-02-04T20:20:24.400Z,33.33
2019-02-04T20:22:52.817Z,35.43
2019-02-04T20:25:26.255Z,33.47
2019-02-04T20:27:54.683Z,31.90
2019-02-04T20:30:26.021Z,33.43
2019-02-04T20:32:54.428Z,33.80
2019-02-04T20:35:22.912Z,35.17
2019-02-04T20:37:51.966Z,34.80
2019-02-04T20:40:22.599Z,36.43
2019-02-04T20:42:51.148Z,33.97
2019-02-04T20:45:21.495Z,35.37
2019-02-04T20:47:51.137Z,34.30
2019-02-04T20:50:22.375Z,32.63
2019-02-04T20:52:50.775Z,34.27
2019-02-04T20:55:19.188Z,36.47
2019-02-04T20:57:47.671Z,35.57
2019-02-04T21:00:19.321Z,34.33
2019-02-04T21:02:47.836Z,33.10
2019-02-04T21:05:16.364Z,32.87
2019-02-04T21:07:44.856Z,37.57
2019-02-04T21:10:16.080Z,34.90
2019-02-04T21:12:44.515Z,32.87
2019-02-04T21:15:15.346Z,32.77
2019-02-04T21:17:43.831Z,35.80
2019-02-04T21:20:17.632Z,34.57
2019-02-04T21:22:46.123Z,35.10
2019-02-04T21:25:14.677Z,34.57
2019-02-04T21:27:43.180Z,33.70
2019-02-04T21:30:26.093Z,35.80
2019-02-04T21:32:54.575Z,33.87
2019-02-04T21:35:23.079Z,33.23
2019-02-04T21:37:51.579Z,34.27
2019-02-04T21:40:20.786Z,30.80
2019-02-04T21:42:49.474Z,31.23
2019-02-04T21:45:23.083Z,31.23
2019-02-04T21:47:51.496Z,32.07
2019-02-04T21:50:21.747Z,27.87
2019-02-04T21:52:50.231Z,30.30
2019-02-04T21:55:19.470Z,29.30
2019-02-04T21:57:47.943Z,31.33
2019-02-04T22:00:30.763Z,28.47
2019-02-04T22:02:59.175Z,30.03
2019-02-04T22:05:29.646Z,32.70
2019-02-04T22:07:58.190Z,32.87
2019-02-04T22:10:28.454Z,30.60
2019-02-04T22:12:57.273Z,33.07
2019-02-04T22:15:25.832Z,33.37
2019-02-04T22:17:54.310Z,30.40
2019-02-04T22:20:23.067Z,32.30
2019-02-04T22:22:54.450Z,31.30
2019-02-04T22:25:27.512Z,31.13
2019-02-04T22:27:56.040Z,33.63
2019-02-04T22:30:26.968Z,32.67
2019-02-04T22:32:58.157Z,33.60
2019-02-04T22:35:26.795Z,29.07
2019-02-04T22:37:55.348Z,35.73
2019-02-04T22:40:26.347Z,30.77
2019-02-04T22:42:55.336Z,30.27
2019-02-04T22:45:23.902Z,32.23
2019-02-04T22:47:52.379Z,31.50
2019-02-04T22:50:22.732Z,28.83
2019-02-04T22:52:51.384Z,28.70
2019-02-04T22:55:31.749Z,27.70
2019-02-04T22:57:51.621Z,31.37
2019-02-04T23:00:42.812Z,29.63
2019-02-04T23:03:12.220Z,30.87
2019-02-04T23:05:40.713Z,30.80
2019-02-04T23:08:09.259Z,27.20
2019-02-04T23:10:37.712Z,28.50
2019-02-04T23:13:06.822Z,27.60
2019-02-04T23:15:35.392Z,28.73
2019-02-04T23:18:04.744Z,27.50
2019-02-04T23:20:33.175Z,27.53
2019-02-04T23:23:01.651Z,25.53
2019-02-04T23:25:30.077Z,26.60
2019-02-04T23:27:58.488Z,24.33
2019-02-04T23:30:26.904Z,25.63
2019-02-04T23:32:55.327Z,28.00
2019-02-04T23:35:24.194Z,27.87
2019-02-04T23:37:52.594Z,25.83
2019-02-04T23:40:21.152Z,25.80
2019-02-04T23:42:49.571Z,25.37
2019-02-04T23:45:18.063Z,21.60
2019-02-04T23:47:46.480Z,22.27
2019-02-04T23:50:16.217Z,19.40
2019-02-04T23:52:44.628Z,20.07
2019-02-04T23:55:13.991Z,20.53
2019-02-04T23:57:42.467Z,23.30
